createdAt,value
2022-09-04T00:00:56.674Z,93.30
2022-09-04T00:03:31.929Z,93.40
2022-09-04T00:06:02.271Z,93.40
2022-09-04T00:08:55.278Z,93.40
2022-09-04T00:11:31.156Z,93.40
2022-09-04T00:14:00.947Z,93.40
2022-09-04T00:16:35.541Z,93.50
2022-09-04T00:19:07.118Z,93.50
2022-09-04T00:21:37.719Z,93.60
2022-09-04T00:24:06.794Z,93.60
2022-09-04T00:26:41.781Z,93.60
2022-09-04T00:29:13.783Z,93.60
2022-09-04T00:31:47.189Z,94.00
2022-09-04T00:34:20.574Z,93.70
2022-09-04T00:36:51.763Z,93.70
2022-09-04T00:39:22.333Z,93.70
2022-09-04T00:41:59.423Z,93.80
2022-09-04T00:44:51.160Z,93.80
2022-09-04T00:47:44.721Z,93.80
2022-09-04T00:50:19.553Z,93.80
2022-09-04T00:53:00.570Z,93.80
2022-09-04T00:55:41.957Z,93.80
2022-09-04T00:58:21.626Z,93.90
2022-09-04T01:00:49.998Z,93.90
2022-09-04T01:03:36.230Z,94.00
2022-09-04T01:06:21.895Z,94.00
2022-09-04T01:09:06.263Z,93.90
2022-09-04T01:11:38.965Z,94.00
2022-09-04T01:14:13.389Z,94.00
2022-09-04T01:16:46.388Z,94.00
2022-09-04T01:19:30.523Z,94.30
2022-09-04T01:22:05.567Z,94.00
2022-09-04T01:25:05.767Z,94.30
2022-09-04T01:27:38.088Z,94.00
2022-09-04T01:30:08.412Z,94.40
2022-09-04T01:32:43.859Z,94.10
2022-09-04T01:35:18.367Z,94.10
2022-09-04T01:37:53.276Z,94.10
2022-09-04T01:40:35.174Z,94.10
2022-09-04T01:43:08.413Z,94.10
2022-09-04T01:45:48.626Z,94.10
2022-09-04T01:48:18.933Z,94.20
2022-09-04T01:50:48.906Z,94.20
2022-09-04T01:53:19.945Z,94.20
2022-09-04T01:55:51.916Z,94.20
2022-09-04T01:58:25.506Z,94.20
2022-09-04T02:00:57.872Z,94.20
2022-09-04T02:03:27.806Z,94.20
2022-09-04T02:06:02.823Z,94.20
2022-09-04T02:08:39.213Z,94.20
2022-09-04T02:11:13.120Z,94.20
2022-09-04T02:13:53.672Z,94.20
2022-09-04T02:16:24.038Z,94.30
2022-09-04T02:18:55.560Z,94.30
2022-09-04T02:21:27.258Z,94.30
2022-09-04T02:24:02.447Z,94.30
2022-09-04T02:26:31.853Z,94.30
2022-09-04T02:29:03.666Z,94.30
2022-09-04T02:31:38.812Z,94.30
2022-09-04T02:34:09.466Z,94.30
2022-09-04T02:36:42.470Z,94.30
2022-09-04T02:39:17.570Z,94.30
2022-09-04T02:41:51.286Z,94.30
2022-09-04T02:44:30.368Z,94.40
2022-09-04T02:47:03.269Z,94.40
2022-09-04T02:49:36.859Z,94.60
2022-09-04T02:52:13.874Z,94.50
2022-09-04T02:54:52.415Z,94.50
2022-09-04T02:57:28.067Z,94.50
2022-09-04T03:00:04.662Z,94.50
2022-09-04T03:02:34.859Z,94.50
2022-09-04T03:05:05.958Z,94.50
2022-09-04T03:07:34.973Z,94.60
2022-09-04T03:10:08.321Z,94.50
2022-09-04T03:12:38.563Z,94.60
2022-09-04T03:15:14.094Z,94.60
2022-09-04T03:17:47.572Z,94.60
2022-09-04T03:20:17.845Z,94.60
2022-09-04T03:22:48.693Z,94.60
2022-09-04T03:25:45.093Z,94.60
2022-09-04T03:28:16.683Z,94.60
2022-09-04T03:30:46.557Z,94.60
2022-09-04T03:33:16.455Z,94.60
2022-09-04T03:35:50.567Z,94.60
2022-09-04T03:38:20.396Z,94.60
2022-09-04T03:40:52.443Z,94.60
2022-09-04T03:43:31.682Z,94.70
2022-09-04T03:46:05.394Z,94.70
2022-09-04T03:48:45.482Z,94.70
2022-09-04T03:51:18.845Z,94.70
2022-09-04T03:53:50.771Z,94.70
2022-09-04T03:56:32.592Z,94.70
2022-09-04T03:59:04.786Z,94.70
2022-09-04T04:01:42.018Z,94.70
2022-09-04T04:04:45.210Z,94.70
2022-09-04T04:07:19.791Z,94.70
2022-09-04T04:09:55.830Z,94.70
2022-09-04T04:12:49.922Z,94.70
2022-09-04T04:15:27.632Z,94.70
2022-09-04T04:18:05.420Z,94.70
2022-09-04T04:20:38.070Z,94.70
2022-09-04T04:23:59.806Z,94.70
2022-09-04T04:26:39.302Z,94.70
2022-09-04T04:29:40.644Z,94.70
2022-09-04T04:32:21.384Z,94.80
2022-09-04T04:35:02.084Z,94.70
2022-09-04T04:37:35.451Z,94.70
2022-09-04T04:40:05.545Z,94.70
2022-09-04T04:42:36.500Z,94.70
2022-09-04T04:45:30.415Z,94.70
2022-09-04T04:48:31.775Z,94.80
2022-09-04T04:51:07.490Z,94.70
2022-09-04T04:53:39.739Z,94.80
2022-09-04T04:56:14.116Z,94.80
2022-09-04T04:58:49.590Z,94.80
2022-09-04T05:01:25.671Z,94.80
2022-09-04T05:04:02.459Z,94.80
2022-09-04T05:06:36.305Z,95.20
2022-09-04T05:09:10.582Z,94.80
2022-09-04T05:11:41.084Z,94.80
2022-09-04T05:14:17.534Z,94.80
2022-09-04T05:16:53.455Z,94.90
2022-09-04T05:19:27.853Z,94.80
2022-09-04T05:22:01.253Z,94.90
2022-09-04T05:24:32.987Z,94.90
2022-09-04T05:27:04.038Z,94.90
2022-09-04T05:29:35.291Z,94.90
2022-09-04T05:32:14.733Z,95.00
2022-09-04T05:35:01.873Z,95.00
2022-09-04T05:37:35.986Z,95.10
2022-09-04T05:40:09.618Z,95.30
2022-09-04T05:42:42.737Z,95.40
2022-09-04T05:45:15.265Z,95.50
2022-09-04T05:47:47.134Z,95.50
2022-09-04T05:50:37.143Z,95.60
2022-09-04T05:53:47.099Z,95.60
2022-09-04T05:56:30.904Z,95.60
2022-09-04T05:59:06.402Z,95.60
2022-09-04T06:01:53.568Z,96.20
2022-09-04T06:04:43.879Z,96.20
2022-09-04T06:07:13.796Z,96.00
2022-09-04T06:09:50.946Z,96.00
2022-09-04T06:12:30.006Z,95.90
2022-09-04T06:15:12.508Z,95.90
2022-09-04T06:17:52.536Z,95.80
2022-09-04T06:20:29.107Z,95.70
2022-09-04T06:23:17.946Z,95.70
2022-09-04T06:26:07.379Z,95.60
2022-09-04T06:28:56.568Z,95.50
2022-09-04T06:32:04.284Z,95.50
2022-09-04T06:34:51.267Z,95.40
2022-09-04T06:37:23.026Z,95.40
2022-09-04T06:39:57.304Z,95.30
2022-09-04T06:42:35.070Z,95.30
2022-09-04T06:45:15.853Z,95.30
2022-09-04T06:47:55.572Z,95.20
2022-09-04T06:50:25.697Z,95.20
2022-09-04T06:53:04.875Z,95.10
2022-09-04T06:55:34.916Z,95.00
2022-09-04T06:58:20.215Z,95.00
2022-09-04T07:00:53.418Z,95.00
2022-09-04T07:03:28.244Z,94.90
2022-09-04T07:05:59.963Z,94.90
2022-09-04T07:08:35.251Z,94.80
2022-09-04T07:11:09.281Z,94.80
2022-09-04T07:13:45.078Z,94.80
2022-09-04T07:16:35.131Z,94.70
2022-09-04T07:19:26.386Z,94.70
2022-09-04T07:22:01.211Z,94.70
2022-09-04T07:24:41.152Z,94.70
2022-09-04T07:27:15.602Z,94.60
2022-09-04T07:29:48.411Z,94.60
2022-09-04T07:32:21.656Z,94.50
2022-09-04T07:34:53.759Z,94.50
2022-09-04T07:37:27.774Z,94.50
2022-09-04T07:40:01.411Z,94.50
2022-09-04T07:42:31.247Z,94.50
2022-09-04T07:45:02.863Z,94.50
2022-09-04T07:47:44.670Z,94.50
2022-09-04T07:50:18.193Z,94.40
2022-09-04T07:52:56.929Z,94.40
2022-09-04T07:55:33.279Z,94.60
2022-09-04T07:58:35.864Z,94.60
2022-09-04T08:01:25.114Z,94.70
2022-09-04T08:04:05.390Z,94.80
2022-09-04T08:06:39.463Z,94.80
2022-09-04T08:09:33.847Z,94.80
2022-09-04T08:12:42.603Z,94.90
2022-09-04T08:15:16.320Z,94.90
2022-09-04T08:18:01.499Z,94.80
2022-09-04T08:20:53.099Z,94.80
2022-09-04T08:24:01.257Z,96.00
2022-09-04T08:26:31.850Z,97.40
2022-09-04T08:29:12.492Z,97.70
2022-09-04T08:31:42.874Z,98.20
2022-09-04T08:34:28.525Z,98.40
2022-09-04T08:37:00.810Z,98.90
2022-09-04T08:39:32.696Z,98.50
2022-09-04T08:42:31.382Z,98.50
2022-09-04T08:45:42.441Z,98.90
2022-09-04T08:48:42.941Z,98.80
2022-09-04T08:51:23.694Z,98.40
2022-09-04T08:54:21.313Z,97.90
2022-09-04T08:56:55.023Z,97.60
2022-09-04T08:59:45.822Z,97.50
2022-09-04T09:02:43.919Z,97.40
2022-09-04T09:05:49.694Z,97.30
2022-09-04T09:08:55.024Z,97.10
2022-09-04T09:11:55.849Z,97.00
2022-09-04T09:14:38.176Z,97.20
2022-09-04T09:17:12.727Z,97.20
2022-09-04T09:19:47.822Z,97.10
2022-09-04T09:22:37.066Z,97.00
2022-09-04T09:25:20.548Z,96.90
2022-09-04T09:28:21.351Z,96.90
2022-09-04T09:31:17.242Z,96.80
2022-09-04T09:34:21.014Z,96.80
2022-09-04T09:37:07.053Z,96.70
2022-09-04T09:40:06.938Z,96.70
2022-09-04T09:42:55.399Z,96.60
2022-09-04T09:45:36.828Z,96.60
2022-09-04T09:48:32.659Z,96.60
2022-09-04T09:51:24.788Z,96.70
2022-09-04T09:54:29.090Z,96.60
2022-09-04T09:57:37.142Z,96.60
2022-09-04T10:00:09.473Z,96.50
2022-09-04T10:03:01.276Z,96.40
2022-09-04T10:05:51.617Z,96.40
2022-09-04T10:08:49.018Z,96.40
2022-09-04T10:11:42.377Z,96.40
2022-09-04T10:14:43.732Z,96.30
2022-09-04T10:17:22.818Z,96.90
2022-09-04T10:20:27.668Z,96.20
2022-09-04T10:23:20.788Z,96.20
2022-09-04T10:26:17.938Z,96.10
2022-09-04T10:28:59.492Z,96.00
2022-09-04T10:32:06.370Z,96.20
2022-09-04T10:35:07.470Z,96.30
2022-09-04T10:37:54.696Z,96.40
2022-09-04T10:40:43.299Z,96.50
2022-09-04T10:43:23.770Z,96.50
2022-09-04T10:45:58.884Z,96.40
2022-09-04T10:48:57.549Z,96.40
2022-09-04T10:51:36.419Z,96.40
2022-09-04T10:54:40.121Z,96.40
2022-09-04T10:57:20.271Z,96.10
2022-09-04T10:59:59.158Z,96.30
2022-09-04T11:02:53.212Z,96.20
2022-09-04T11:05:36.383Z,96.20
2022-09-04T11:08:26.391Z,96.20
2022-09-04T11:11:34.871Z,96.20
2022-09-04T11:14:13.665Z,96.10
2022-09-04T11:17:14.387Z,96.00
2022-09-04T11:20:03.545Z,96.40
2022-09-04T11:23:05.056Z,96.30
2022-09-04T11:26:13.893Z,96.20
2022-09-04T11:28:51.268Z,96.20
2022-09-04T11:31:53.603Z,96.20
2022-09-04T11:35:05.548Z,96.20
2022-09-04T11:38:04.607Z,96.10
2022-09-04T11:41:24.440Z,96.10
2022-09-04T11:44:12.502Z,96.10
2022-09-04T11:47:18.566Z,96.10
2022-09-04T11:49:58.979Z,96.10
2022-09-04T11:52:36.331Z,96.10
2022-09-04T11:55:34.754Z,96.10
2022-09-04T11:58:30.230Z,96.30
2022-09-04T12:01:08.516Z,96.00
2022-09-04T12:03:51.662Z,95.90
2022-09-04T12:06:34.967Z,96.10
2022-09-04T12:09:11.844Z,96.20
2022-09-04T12:12:14.239Z,95.90
2022-09-04T12:15:07.682Z,95.80
2022-09-04T12:18:08.803Z,95.80
2022-09-04T12:21:00.962Z,95.80
2022-09-04T12:23:41.491Z,95.60
2022-09-04T12:26:34.687Z,95.50
2022-09-04T12:29:28.422Z,95.50
2022-09-04T12:32:30.385Z,95.60
2022-09-04T12:35:41.128Z,95.50
2022-09-04T12:38:26.539Z,95.50
2022-09-04T12:41:01.416Z,95.40
2022-09-04T12:43:41.691Z,95.40
2022-09-04T12:46:24.055Z,95.40
2022-09-04T12:49:03.000Z,95.40
2022-09-04T12:51:37.306Z,95.40
2022-09-04T12:54:27.468Z,95.40
2022-09-04T12:57:00.802Z,95.40
2022-09-04T12:59:41.670Z,95.40
2022-09-04T13:02:14.004Z,95.30
2022-09-04T13:04:49.358Z,95.30
2022-09-04T13:07:27.229Z,95.10
2022-09-04T13:09:59.791Z,95.10
2022-09-04T13:12:32.722Z,95.00
2022-09-04T13:15:09.642Z,95.10
2022-09-04T13:17:43.611Z,95.10
2022-09-04T13:20:18.954Z,95.00
2022-09-04T13:22:57.791Z,94.90
2022-09-04T13:25:29.853Z,94.80
2022-09-04T13:28:04.043Z,94.50
2022-09-04T13:30:34.310Z,94.40
2022-09-04T13:33:18.603Z,94.30
2022-09-04T13:35:59.147Z,94.20
2022-09-04T13:39:17.947Z,94.70
2022-09-04T13:42:05.280Z,94.50
2022-09-04T13:44:47.406Z,94.70
2022-09-04T13:47:16.971Z,94.90
2022-09-04T13:49:48.032Z,94.80
2022-09-04T13:52:19.371Z,94.60
2022-09-04T13:54:52.565Z,94.40
2022-09-04T13:57:24.066Z,95.30
2022-09-04T13:59:54.998Z,94.70
2022-09-04T14:02:24.492Z,95.30
2022-09-04T14:04:53.861Z,94.80
2022-09-04T14:07:24.893Z,95.10
2022-09-04T14:09:54.335Z,94.80
2022-09-04T14:13:05.471Z,94.90
2022-09-04T14:15:46.073Z,94.90
2022-09-04T14:18:26.782Z,95.00
2022-09-04T14:21:01.321Z,95.00
2022-09-04T14:23:42.664Z,95.00
2022-09-04T14:26:15.155Z,94.90
2022-09-04T14:28:46.908Z,94.80
2022-09-04T14:31:18.774Z,94.50
2022-09-04T14:33:53.429Z,94.30
2022-09-04T14:36:26.134Z,94.20
2022-09-04T14:39:06.640Z,94.20
2022-09-04T14:41:42.901Z,94.30
2022-09-04T14:44:18.435Z,94.50
2022-09-04T14:46:55.701Z,94.40
2022-09-04T14:49:24.691Z,94.40
2022-09-04T14:51:56.475Z,94.40
2022-09-04T14:54:27.824Z,94.40
2022-09-04T14:56:57.375Z,94.50
2022-09-04T14:59:27.714Z,94.40
2022-09-04T15:02:07.718Z,94.40
2022-09-04T15:04:39.802Z,94.40
2022-09-04T15:07:25.958Z,94.40
2022-09-04T15:09:58.048Z,94.50
2022-09-04T15:12:27.964Z,94.60
2022-09-04T15:15:04.361Z,94.70
2022-09-04T15:17:32.627Z,94.70
2022-09-04T15:20:02.726Z,94.70
2022-09-04T15:22:36.697Z,94.50
2022-09-04T15:25:08.982Z,94.50
2022-09-04T15:27:43.914Z,94.50
2022-09-04T15:30:19.164Z,94.60
2022-09-04T15:32:47.447Z,94.60
2022-09-04T15:35:17.837Z,94.60
2022-09-04T15:37:48.434Z,94.60
2022-09-04T15:40:28.907Z,94.60
2022-09-04T15:43:04.597Z,94.60
2022-09-04T15:45:36.281Z,94.60
2022-09-04T15:48:18.352Z,94.70
2022-09-04T15:50:57.488Z,94.80
2022-09-04T15:53:27.538Z,94.90
2022-09-04T15:56:10.314Z,94.80
2022-09-04T15:58:47.090Z,94.80
2022-09-04T16:01:17.361Z,94.90
2022-09-04T16:03:54.981Z,94.90
2022-09-04T16:06:26.125Z,94.90
2022-09-04T16:08:58.758Z,95.00
2022-09-04T16:11:32.420Z,95.00
2022-09-04T16:14:01.249Z,94.90
2022-09-04T16:16:31.863Z,94.80
2022-09-04T16:19:07.616Z,94.60
2022-09-04T16:21:42.880Z,94.40
2022-09-04T16:24:15.190Z,94.30
2022-09-04T16:26:47.479Z,94.30
2022-09-04T16:29:26.762Z,94.20
2022-09-04T16:31:55.791Z,94.20
2022-09-04T16:34:25.454Z,94.20
2022-09-04T16:37:01.977Z,94.30
2022-09-04T16:39:32.848Z,94.40
2022-09-04T16:42:13.255Z,95.30
2022-09-04T16:44:44.337Z,95.60
2022-09-04T16:47:17.070Z,95.80
2022-09-04T16:49:48.282Z,96.00
2022-09-04T16:52:31.960Z,96.10
2022-09-04T16:55:10.434Z,96.40
2022-09-04T16:57:43.286Z,96.50
2022-09-04T17:00:13.646Z,96.70
2022-09-04T17:02:50.797Z,96.80
2022-09-04T17:05:28.446Z,96.80
2022-09-04T17:08:14.970Z,96.90
2022-09-04T17:10:46.239Z,97.00
2022-09-04T17:13:21.353Z,97.10
2022-09-04T17:16:00.835Z,96.90
2022-09-04T17:18:29.768Z,96.90
2022-09-04T17:24:56.356Z,96.80
2022-09-04T17:28:57.473Z,97.20
2022-09-04T17:29:16.881Z,97.40
2022-09-04T17:29:40.543Z,97.40
2022-09-04T17:32:42.978Z,97.40
2022-09-04T17:40:43.589Z,97.60
2022-09-04T17:40:44.299Z,97.40
2022-09-04T17:41:36.214Z,97.70
2022-09-04T17:44:02.215Z,97.70
2022-09-04T17:46:36.977Z,97.80
2022-09-04T17:49:18.367Z,97.90
2022-09-04T17:51:50.134Z,97.90
2022-09-04T17:54:24.041Z,98.00
2022-09-04T17:56:57.282Z,98.10
2022-09-04T17:59:28.399Z,98.20
2022-09-04T18:02:01.220Z,98.30
2022-09-04T18:04:34.061Z,98.50
2022-09-04T18:07:33.520Z,98.60
2022-09-04T18:10:01.233Z,98.70
2022-09-04T18:12:34.452Z,98.80
2022-09-04T18:15:32.830Z,98.90
2022-09-04T18:18:00.187Z,98.90
2022-09-04T18:20:31.262Z,98.90
2022-09-04T18:23:20.759Z,99.00
2022-09-04T18:25:53.922Z,99.10
2022-09-04T18:28:25.989Z,99.20
2022-09-04T18:37:06.584Z,99.20
2022-09-04T18:37:18.211Z,99.20
2022-09-04T18:37:23.853Z,99.20
2022-09-04T18:39:49.583Z,99.20
2022-09-04T18:46:41.337Z,99.40
2022-09-04T18:50:51.122Z,99.50
2022-09-04T18:50:51.994Z,99.70
2022-09-04T18:53:51.942Z,99.60
2022-09-04T18:56:22.922Z,99.70
2022-09-04T18:58:57.140Z,99.80
2022-09-04T19:01:27.773Z,99.80
2022-09-04T19:03:57.241Z,99.80
2022-09-04T19:06:34.625Z,99.90
2022-09-04T19:09:09.767Z,99.90
2022-09-04T19:11:43.074Z,99.90
2022-09-04T19:14:15.351Z,99.90
2022-09-04T19:16:44.480Z,99.90
2022-09-04T19:19:17.587Z,99.90
2022-09-04T19:21:58.390Z,99.90
2022-09-04T19:24:34.336Z,99.90
2022-09-04T19:27:26.601Z,99.90
2022-09-04T19:30:17.612Z,99.70
2022-09-04T19:33:02.493Z,99.60
2022-09-04T19:35:36.684Z,99.40
2022-09-04T19:43:10.272Z,99.30
2022-09-04T19:46:01.039Z,99.30
2022-09-04T19:46:15.284Z,99.20
2022-09-04T19:46:49.387Z,99.10
2022-09-04T19:50:16.945Z,99.10
2022-09-04T19:53:30.629Z,99.00
2022-09-04T19:55:25.742Z,99.00
2022-09-04T19:57:54.232Z,99.00
2022-09-04T20:00:42.965Z,98.90
2022-09-04T20:03:29.295Z,98.90
2022-09-04T20:06:19.751Z,98.80
2022-09-04T20:08:51.801Z,98.80
2022-09-04T20:11:30.635Z,98.70
2022-09-04T20:14:13.739Z,99.10
2022-09-04T20:16:52.656Z,98.70
2022-09-04T20:19:27.871Z,98.60
2022-09-04T20:22:00.758Z,98.60
2022-09-04T20:24:34.015Z,98.60
2022-09-04T20:27:08.544Z,98.60
2022-09-04T20:29:38.591Z,98.60
2022-09-04T20:32:10.048Z,98.60
2022-09-04T20:34:43.055Z,98.60
2022-09-04T20:37:40.112Z,98.50
2022-09-04T20:40:19.201Z,98.50
2022-09-04T20:42:56.773Z,98.50
2022-09-04T20:49:27.251Z,98.50
2022-09-04T20:52:42.204Z,98.50
2022-09-04T20:52:53.856Z,98.40
2022-09-04T20:54:11.819Z,98.40
2022-09-04T20:59:48.401Z,98.40
2022-09-04T21:03:10.665Z,98.40
2022-09-04T21:03:17.247Z,98.40
2022-09-04T21:05:50.709Z,98.40
2022-09-04T21:08:30.844Z,98.40
2022-09-04T21:11:00.818Z,98.40
2022-09-04T21:13:32.949Z,98.40
2022-09-04T21:16:09.259Z,98.40
2022-09-04T21:19:28.655Z,99.40
2022-09-04T21:22:28.996Z,99.50
2022-09-04T21:25:18.562Z,99.60
2022-09-04T21:28:09.913Z,99.70
2022-09-04T21:30:49.345Z,99.70
2022-09-04T21:33:33.345Z,99.70
2022-09-04T21:36:26.298Z,99.60
2022-09-04T21:39:24.086Z,99.60
2022-09-04T21:42:00.025Z,99.60
2022-09-04T21:44:43.814Z,99.60
2022-09-04T21:47:26.922Z,99.60
2022-09-04T21:50:30.246Z,99.50
2022-09-04T21:53:19.822Z,99.40
2022-09-04T22:02:32.339Z,99.30
2022-09-04T22:02:36.660Z,99.30
2022-09-04T22:02:44.443Z,99.20
2022-09-04T22:04:47.663Z,99.20
2022-09-04T22:13:08.303Z,99.10
2022-09-04T22:13:31.927Z,99.00
2022-09-04T22:13:47.870Z,99.00
2022-09-04T22:16:23.836Z,99.00
2022-09-04T22:19:16.435Z,98.90
2022-09-04T22:22:03.254Z,98.90
2022-09-04T22:24:58.782Z,98.90
2022-09-04T22:28:07.742Z,98.90
2022-09-04T22:30:43.655Z,98.90
2022-09-04T22:34:15.560Z,98.90
2022-09-04T22:37:09.039Z,98.80
2022-09-04T22:39:57.489Z,98.80
2022-09-04T22:42:45.062Z,98.80
2022-09-04T22:45:38.080Z,98.80
2022-09-04T22:48:17.629Z,98.80
2022-09-04T22:50:52.882Z,98.70
2022-09-04T22:53:52.356Z,98.70
2022-09-04T22:56:26.736Z,98.70
2022-09-04T22:59:26.276Z,98.70
2022-09-04T23:02:48.125Z,98.70
2022-09-04T23:05:40.740Z,98.60
2022-09-04T23:13:46.135Z,98.60
2022-09-04T23:14:00.696Z,98.60
2022-09-04T23:14:18.361Z,98.60
2022-09-04T23:17:06.239Z,98.60
2022-09-04T23:25:49.030Z,98.50
2022-09-04T23:26:43.056Z,98.50
2022-09-04T23:26:59.082Z,98.50
2022-09-04T23:29:41.082Z,98.50
2022-09-04T23:32:43.373Z,98.40
2022-09-04T23:35:16.911Z,98.40
2022-09-04T23:38:00.995Z,98.40
2022-09-04T23:40:36.499Z,98.40
2022-09-04T23:43:25.275Z,98.40
2022-09-04T23:46:08.836Z,98.30
2022-09-04T23:49:19.593Z,98.30
2022-09-04T23:51:50.091Z,98.30
2022-09-04T23:54:39.481Z,98.20
2022-09-04T23:57:25.979Z,98.20
2022-09-04T23:59:56.922Z,98.20
